Flight Track Log - Related Links

Times and Time Zones

All times are in EST time to prevent confusion due to time zone crossing. See the N589H flight status page for this flight to view local times or setup timezone preferences in your user account.

Time Position Orientation Groundspeed Altitude Reporting Facility
EST Latitude Longitude Course Direction KTS MPH feet Rate Location/Type
Thu 12:01:51 PM 26.6939 -79.9533 31° Northeast 195 224 4,600  Level Miami Center
Thu 12:02:54 PM 26.7458 -79.9186 31° Northeast 222 255 6,700 1,536 Climbing Miami Center
Thu 12:03:56 PM 26.8114 -79.8758 30° Northeast 261 300 7,800 1,306 Climbing Miami Center
Thu 12:04:58 PM 26.8625 -79.8067 50° Northeast 276 318 9,400 1,680 Climbing Miami Center
Thu 12:06:01 PM 26.9094 -79.7322 55° Northeast 276 318 11,300 1,728 Climbing Miami Center
Thu 12:07:03 PM 26.9572 -79.6581 54° Northeast 277 319 13,000 1,306 Climbing Miami Center
Thu 12:08:05 PM 27.0075 -79.5800 54° Northeast 292 336 14,000 480 Climbing Miami Center
Thu 12:09:08 PM 27.0650 -79.4936 53° Northeast 321 369 14,000 528 Level Miami Center
Thu 12:10:10 PM 27.1272 -79.4069 51° Northeast 336 387 15,100 484 Climbing Miami Center
Thu 12:11:12 PM 27.1831 -79.3133 56° Northeast 347 399 15,000 -48 Descending Miami Center
Thu 12:12:15 PM 27.2425 -79.2183 55° Northeast 357 411 15,000 219 Level Miami Center
Thu 12:13:29 PM 27.3036 -79.1231 54° Northeast 359 413 15,500 745 Climbing Miami Center
Thu 12:14:32 PM 27.3694 -79.0197 54° Northeast 336 387 16,700 1,008 Climbing Miami Center
Thu 12:15:34 PM 27.4292 -78.9533 45° Northeast 340 391 17,600 968 Climbing Miami Center
Thu 12:16:36 PM 27.5314 -78.9372 North 319 367 18,700 1,056 Climbing Miami Center
Thu 12:17:39 PM 27.6225 -78.9217 North 319 367 19,800 1,056 Climbing Miami Center
Thu 12:18:41 PM 27.7161 -78.9083 North 319 367 20,900 919 Climbing Miami Center
Thu 12:19:43 PM 27.7883 -78.8978 North 321 369 21,700 919 Climbing Miami Center
Thu 12:20:45 PM 27.8875 -78.8836 North 322 371 22,800 964 Climbing Miami Center
Thu 12:22:00 PM 27.9789 -78.8703 North 325 374 23,900 1,087 Climbing Miami Center
Thu 12:23:03 PM 28.1086 -78.8522 North 332 382 25,300 1,056 Climbing Miami Center
Thu 12:24:05 PM 28.1994 -78.8394 North 332 382 26,100 581 Climbing Miami Center
Thu 12:25:07 PM 28.2928 -78.8264 North 335 386 26,500 387 Climbing Miami Center
Thu 12:26:09 PM 28.3903 -78.8117 North 348 400 26,900 240 Climbing Miami Center
Thu 12:27:12 PM 28.5106 -78.7883 10° North 361 415 27,000 48 Climbing Miami Center
Thu 12:28:14 PM 28.5850 -78.7375 31° Northeast 381 438 27,000  Level Miami Center
Thu 12:29:16 PM 28.7003 -78.7342 North 366 421 27,000  Level Miami Center
Thu 12:30:19 PM 28.7953 -78.7556 349° North 354 407 27,000  Level Miami Center
Thu 12:31:21 PM 28.8931 -78.7750 350° North 354 407 27,000  Level Miami Center
Thu 12:32:23 PM 29.0075 -78.8033 348° North 354 407 27,000 336 Level Miami Center
Thu 12:33:26 PM 29.1061 -78.7994 North 367 422 27,700 720 Climbing Miami Center
Thu 12:34:28 PM 29.2022 -78.7803 10° North 357 411 28,500 774 Climbing Miami Center
Thu 12:35:30 PM 29.2978 -78.7625 North 353 406 29,300 726 Climbing Miami Center
Thu 12:36:32 PM 29.3886 -78.7472 North 336 387 30,000 768 Climbing Miami Center
Thu 12:37:35 PM 29.4975 -78.7294 North 333 383 30,900 672 Climbing Miami Center
Thu 12:38:37 PM 29.5867 -78.7147 North 328 377 31,400 484 Climbing Miami Center
Thu 12:39:39 PM 29.6778 -78.7003 North 328 377 31,900 480 Climbing Miami Center
Thu 12:40:42 PM 29.7689 -78.6833 North 331 381 32,400 480 Climbing Miami Center
Thu 12:41:44 PM 29.8636 -78.6686 North 340 391 32,900 290 Climbing Miami Center
Thu 12:42:46 PM 29.9581 -78.6528 North 341 392 33,000 48 Climbing Miami Center
Thu 12:43:48 PM 30.0769 -78.6317 North 355 409 33,000  Level Miami Center
Thu 12:44:42 PM 30.1614 -78.6192 North 352 405 33,000  Level Jacksonville Center
Thu 12:45:42 PM 30.2569 -78.6028 North 360 414 33,000  Level Jacksonville Center
Thu 12:46:42 PM 30.3628 -78.5861 North 370 426 33,000  Level Jacksonville Center
Thu 12:47:42 PM 30.4667 -78.5669 North 376 433 33,000  Level Jacksonville Center
Thu 12:48:43 PM 30.5828 -78.5494 North 387 445 33,000 100 Level Jacksonville Center
Thu 12:49:42 PM 30.6886 -78.5303 North 385 443 33,200 353 Climbing Jacksonville Center
Thu 12:50:42 PM 30.7903 -78.5111 North 384 442 33,700 450 Climbing Jacksonville Center
Thu 12:51:42 PM 30.8939 -78.4917 North 384 442 34,100 450 Climbing Jacksonville Center
Thu 12:52:42 PM 31.0000 -78.4769 North 384 442 34,600 550 Climbing Jacksonville Center
Thu 12:53:42 PM 31.1119 -78.4572 North 384 442 35,200 550 Climbing Jacksonville Center
Thu 12:54:42 PM 31.2136 -78.4403 North 379 436 35,700 500 Climbing Jacksonville Center
Thu 12:55:42 PM 31.3022 -78.4653 346° North 328 377 36,200 450 Climbing Jacksonville Center
Thu 12:56:42 PM 31.3867 -78.4953 343° North 319 367 36,600 400 Climbing Jacksonville Center
Thu 12:57:42 PM 31.4733 -78.5206 346° North 319 367 37,000 200 Climbing Jacksonville Center
Thu 12:58:42 PM 31.5675 -78.5306 355° North 329 379 37,000  Level Jacksonville Center
Thu 12:59:42 PM 31.6708 -78.4989 15° North 353 406 37,000  Level Jacksonville Center
Thu 01:00:42 PM 31.7742 -78.4719 12° North 368 423 37,000  Level Jacksonville Center
Thu 01:01:42 PM 31.8800 -78.4522 North 380 437 37,000  Level Jacksonville Center
Thu 01:02:42 PM 31.9897 -78.4250 12° North 391 450 37,000  Level Jacksonville Center
Thu 01:03:42 PM 32.1014 -78.3975 12° North 397 457 37,000  Level Jacksonville Center
Thu 01:04:42 PM 32.2069 -78.3728 11° North 397 457 37,000  Level Jacksonville Center
Thu 01:05:42 PM 32.3208 -78.3450 12° North 397 457 37,000  Level Jacksonville Center
Thu 01:06:42 PM 32.4325 -78.3197 11° North 404 465 37,000  Level Jacksonville Center
Thu 01:07:42 PM 32.5444 -78.2942 11° North 409 471 37,000  Level Jacksonville Center
Thu 01:08:42 PM 32.6539 -78.2667 12° North 409 471 37,000  Level Jacksonville Center
Thu 01:09:42 PM 32.7636 -78.2436 10° North 409 471 37,000  Level Jacksonville Center
Thu 01:10:42 PM 32.8753 -78.2156 12° North 409 471 37,000  Level Jacksonville Center
Thu 01:11:42 PM 32.9872 -78.1950 North 409 471 37,000  Level Jacksonville Center
Thu 01:12:43 PM 33.0992 -78.1692 11° North 409 471 37,000  Level Jacksonville Center
Thu 01:13:42 PM 33.2044 -78.1439 11° North 409 471 37,000  Level Jacksonville Center
Thu 01:14:42 PM 33.3142 -78.1156 12° North 404 465 37,000  Level Jacksonville Center
Thu 01:15:40 PM 33.4178 -78.0919 11° North 401 461 37,000  Level Washington Center
Thu 01:16:42 PM 33.5161 -78.0725 North 413 475 37,000  Level Washington Center
Thu 01:17:42 PM 33.6253 -78.0456 12° North 407 468 37,000  Level Washington Center
Thu 01:18:40 PM 33.7319 -78.0214 11° North 401 461 37,000  Level Washington Center
Thu 01:19:41 PM 33.8431 -77.9972 10° North 395 455 37,000  Level Washington Center
Thu 01:20:41 PM 33.9542 -77.9678 12° North 395 455 37,000  Level Washington Center
Thu 01:21:40 PM 34.0617 -77.9183 21° North 395 455 37,000  Level Washington Center
Thu 01:22:40 PM 34.1714 -77.8511 27° Northeast 412 474 37,000  Level Washington Center
Thu 01:23:42 PM 34.2789 -77.7961 23° Northeast 417 480 37,000  Level Washington Center
Thu 01:24:42 PM 34.3989 -77.7339 23° Northeast 423 487 37,000  Level Washington Center
Thu 01:25:40 PM 34.5061 -77.6789 23° Northeast 423 487 37,000  Level Washington Center
Thu 01:26:42 PM 34.6158 -77.6211 23° Northeast 423 487 37,000  Level Washington Center
Thu 01:27:40 PM 34.7231 -77.5606 25° Northeast 423 487 37,000  Level Washington Center
Thu 01:28:41 PM 34.8306 -77.5025 24° Northeast 423 487 37,000  Level Washington Center
Thu 01:29:41 PM 34.9272 -77.4464 25° Northeast 418 481 37,000  Level Washington Center
Thu 01:30:42 PM 35.0389 -77.3906 22° Northeast 425 489 37,000  Level Washington Center
Thu 01:31:40 PM 35.1481 -77.3319 24° Northeast 425 489 37,000  Level Washington Center
Thu 01:32:41 PM 35.2556 -77.2708 25° Northeast 419 482 37,000  Level Washington Center
Thu 01:33:41 PM 35.3628 -77.2119 24° Northeast 419 482 37,000  Level Washington Center
Thu 01:34:42 PM 35.4719 -77.1528 24° Northeast 419 482 37,000  Level Washington Center
Thu 01:35:40 PM 35.5917 -77.0864 24° Northeast 419 482 37,000  Level Washington Center
Thu 01:36:40 PM 35.6883 -77.0344 24° Northeast 419 482 37,000  Level Washington Center
Thu 01:37:41 PM 35.7997 -76.9775 23° Northeast 424 488 37,000  Level Washington Center
Thu 01:38:40 PM 35.9025 -76.9153 26° Northeast 419 482 37,000  Level Washington Center
Thu 01:39:40 PM 36.0139 -76.8556 23° Northeast 419 482 37,000  Level Washington Center
Thu 01:40:41 PM 36.1167 -76.7953 25° Northeast 419 482 37,000  Level Washington Center
Thu 01:41:42 PM 36.2278 -76.7353 24° Northeast 419 482 37,000  Level Washington Center
Thu 01:42:40 PM 36.3369 -76.6750 24° Northeast 419 482 37,000  Level Washington Center
Thu 01:43:41 PM 36.4458 -76.6119 25° Northeast 419 482 37,000  Level Washington Center
Thu 01:44:42 PM 36.5550 -76.5511 24° Northeast 419 482 37,000  Level Washington Center
Thu 01:45:42 PM 36.6658 -76.4878 25° Northeast 419 482 37,000 -51 Level Washington Center
Thu 01:46:40 PM 36.7853 -76.4192 25° Northeast 419 482 36,900  Descending Washington Center
Thu 01:47:41 PM 36.8964 -76.3556 25° Northeast 424 488 37,000 50 Climbing Washington Center
Thu 01:48:39 PM 37.0053 -76.2942 24° Northeast 424 488 37,000  Level Washington Center
Thu 01:49:40 PM 37.1161 -76.2300 25° Northeast 424 488 37,000  Level Washington Center
Thu 01:50:41 PM 37.2250 -76.1656 25° Northeast 424 488 37,000  Level Washington Center
Thu 01:51:42 PM 37.3378 -76.1039 23° Northeast 424 488 37,000  Level Washington Center
Thu 01:52:40 PM 37.4464 -76.0417 24° Northeast 424 488 37,000  Level Washington Center
Thu 01:53:40 PM 37.5553 -75.9769 25° Northeast 424 488 37,000  Level Washington Center
Thu 01:54:40 PM 37.6658 -75.9144 24° Northeast 424 488 37,000  Level Washington Center
Thu 01:55:41 PM 37.7725 -75.8492 26° Northeast 424 488 37,000  Level Washington Center
Thu 01:56:42 PM 37.8811 -75.7864 25° Northeast 419 482 37,000  Level Washington Center
Thu 01:57:42 PM 37.9917 -75.7394 19° North 420 483 37,000  Level Washington Center
Thu 01:58:40 PM 38.0958 -75.7078 13° North 399 459 37,000  Level Washington Center
Thu 01:59:40 PM 38.1939 -75.6842 11° North 392 451 37,000  Level Washington Center
Thu 02:00:41 PM 38.3169 -75.6472 13° North 400 460 37,000  Level Washington Center
Thu 02:01:41 PM 38.4233 -75.6156 13° North 400 460 37,000  Level Washington Center
Thu 02:02:42 PM 38.5317 -75.5811 14° North 400 460 37,000  Level Washington Center
Thu 02:03:42 PM 38.6403 -75.5492 13° North 395 455 37,000  Level Washington Center
Thu 02:04:40 PM 38.7486 -75.5225 11° North 395 455 37,000  Level Washington Center
Thu 02:05:40 PM 38.8569 -75.4850 15° North 395 455 37,000  Level Washington Center
Thu 02:06:41 PM 38.9633 -75.4503 14° North 395 455 37,000  Level Washington Center
Thu 02:07:41 PM 39.0611 -75.4233 12° North 395 455 37,000  Level Washington Center
Thu 02:08:42 PM 39.1819 -75.3853 14° North 395 455 37,000  Level Washington Center
Thu 02:10:19 PM 39.3603 -75.3303 13° North 414 476 37,000  Level New York Center
Thu 02:11:19 PM 39.4658 -75.2969 14° North 409 471 37,000  Level New York Center
Thu 02:12:19 PM 39.5692 -75.2658 13° North 380 437 37,000  Level New York Center
Thu 02:13:19 PM 39.6747 -75.2319 14° North 380 437 37,000  Level New York Center
Thu 02:14:19 PM 39.7781 -75.2008 13° North 380 437 37,000  Level New York Center
Thu 02:15:19 PM 39.8817 -75.1642 15° North 380 437 37,000  Level New York Center
Thu 02:16:19 PM 39.9872 -75.1300 14° North 380 437 37,000  Level New York Center
Thu 02:17:19 PM 40.0928 -75.0933 15° North 380 437 37,000  Level New York Center
Thu 02:18:19 PM 40.1939 -75.0589 15° North 380 437 37,000  Level New York Center
Thu 02:19:19 PM 40.2975 -75.0244 14° North 380 437 37,000  Level New York Center
Thu 02:20:19 PM 40.3986 -74.9925 14° North 380 437 37,000  Level New York Center
Thu 02:21:19 PM 40.4997 -74.9578 15° North 380 437 37,000  Level New York Center
Thu 02:22:19 PM 40.6031 -74.9258 13° North 380 437 37,000  Level New York Center
Thu 02:23:19 PM 40.7064 -74.8911 14° North 380 437 37,000  Level New York Center
Thu 02:24:19 PM 40.8097 -74.8561 14° North 380 437 37,000  Level New York Center
Thu 02:26:44 PM 41.0547 -74.7814 13° North 386 444 37,000  Level Boston Center
Thu 02:27:45 PM 41.1656 -74.7453 14° North 387 445 37,000  Level Boston Center
Thu 02:28:47 PM 41.2636 -74.7119 14° North 388 447 37,000  Level Boston Center
Thu 02:29:48 PM 41.3667 -74.6775 14° North 386 444 37,000  Level Boston Center
Thu 02:30:50 PM 41.4703 -74.6442 14° North 384 442 37,000  Level Boston Center
Thu 02:31:51 PM 41.5933 -74.6025 14° North 385 443 37,000  Level Boston Center
Thu 02:32:52 PM 41.6958 -74.5675 14° North 381 438 37,000  Level Boston Center
Thu 02:33:54 PM 41.8003 -74.5342 13° North 383 441 37,000  Level Boston Center
Thu 02:34:55 PM 41.9028 -74.5003 14° North 382 440 37,000  Level Boston Center
Thu 02:35:57 PM 42.0056 -74.4650 14° North 383 441 37,000  Level Boston Center
Thu 02:36:58 PM 42.1131 -74.4269 15° North 382 440 37,000  Level Boston Center
Thu 02:37:59 PM 42.2197 -74.3914 14° North 377 434 37,000  Level Boston Center
Thu 02:39:01 PM 42.3217 -74.3561 14° North 376 433 37,000  Level Boston Center
Thu 02:40:02 PM 42.4222 -74.3228 14° North 372 428 37,000  Level Boston Center
Thu 02:41:04 PM 42.5214 -74.2889 14° North 368 423 37,000  Level Boston Center
Thu 02:42:05 PM 42.6308 -74.2519 14° North 365 420 37,000  Level Boston Center
Thu 02:43:07 PM 42.7286 -74.2183 14° North 365 420 37,000  Level Boston Center
Thu 02:44:08 PM 42.8269 -74.1850 14° North 366 421 37,000  Level Boston Center
Thu 02:45:10 PM 42.9258 -74.1517 14° North 367 422 37,000  Level Boston Center
Thu 02:46:11 PM 43.0228 -74.1178 14° North 363 418 37,000  Level Boston Center
Thu 02:47:12 PM 43.1200 -74.0831 15° North 364 419 37,000  Level Boston Center
Thu 02:48:14 PM 43.2175 -74.0508 14° North 363 418 37,000  Level Boston Center
Thu 02:49:15 PM 43.3331 -74.0086 15° North 361 415 37,000  Level Boston Center
Thu 02:50:17 PM 43.4208 -73.9789 14° North 360 414 37,000  Level Boston Center
Thu 02:51:18 PM 43.5167 -73.9450 14° North 358 412 37,000  Level Boston Center
Thu 02:52:20 PM 43.6114 -73.9122 14° North 354 407 37,000  Level Boston Center
Thu 02:53:21 PM 43.7156 -73.8750 14° North 355 409 37,000 -393 Level Boston Center
Thu 02:54:22 PM 43.8111 -73.8403 15° North 358 412 36,200 -976 Descending Boston Center
Thu 02:55:24 PM 43.9122 -73.8044 14° North 374 430 35,000 -1,415 Descending Boston Center
Thu 02:56:25 PM 44.0292 -73.7617 15° North 387 445 33,300 -1,574 Descending Boston Center
Thu 02:57:26 PM 44.1314 -73.7256 14° North 382 440 31,800 -1,463 Descending Boston Center
Thu 02:58:28 PM 44.2306 -73.6889 15° North 371 427 30,300 -1,463 Descending Boston Center
Thu 02:59:29 PM 44.3283 -73.6544 14° North 365 420 28,800 -1,574 Descending Boston Center
Thu 03:00:30 PM 44.4233 -73.6192 15° North 356 410 27,100 -2,195 Descending Boston Center
Thu 03:01:32 PM 44.5119 -73.5858 15° North 335 386 24,300 -2,439 Descending Boston Center
Thu 03:02:33 PM 44.5964 -73.5542 15° North 317 365 22,100 -2,262 Descending Boston Center
Thu 03:03:34 PM 44.6917 -73.5228 13° North 296 341 19,700 -2,146 Descending Boston Center
Thu 03:04:36 PM 44.7681 -73.5325 355° North 276 318 17,700 -1,659 Descending Boston Center
Thu 03:05:37 PM 44.8425 -73.5400 356° North 267 307 16,300 -1,574 Descending Boston Center
Thu 03:06:38 PM 44.9189 -73.5483 356° North 273 314 14,500 -1,820 Descending Boston Center
Thu 03:07:39 PM 44.9978 -73.5567 356° North 282 325 12,600 -1,805 Descending Boston Center
Thu 03:08:41 PM 45.0767 -73.5650 356° North 283 326 10,800 -1,359 Descending Boston Center
Thu 03:09:47 PM 45.1500 -73.5667 359° North 270 311 9,700 -1,000 Descending Montreal Center
Thu 03:10:47 PM 45.2333 -73.5667 360° North 260 299 8,700 -750 Descending Montreal Center
Thu 03:11:47 PM 45.3000 -73.5833 350° North 260 299 8,200 -750 Descending Montreal Center
Thu 03:12:47 PM 45.3667 -73.5833 360° North 260 299 7,200 -1,050 Descending Montreal Center
Thu 03:13:47 PM 45.4500 -73.5833 360° North 270 311 6,100 -850 Descending Montreal Center
Thu 03:14:47 PM 45.5167 -73.5500 19° North 270 311 5,500 -450 Descending Montreal Center
Thu 03:15:47 PM 45.5833 -73.5000 28° Northeast 250 288 5,200 -1,000 Descending Montreal Center
Thu 03:16:47 PM 45.5833 -73.5500 270° West 190 219 3,500 -1,100 Descending Montreal Center
Thu 03:17:47 PM 45.5500 -73.6000 226° Southwest 170 196 3,000 -750 Descending Montreal Center
Thu 03:18:47 PM 45.5167 -73.6500 226° Southwest 160 184 2,000 -1,000 Descending Montreal Center
Thu 03:19:47 PM 45.4833 -73.6667 199° South 140 161 1,000 -1,000 Descending Montreal Center

Login

Don't have an account? Register now (free) for customized features, flight alerts, and more!